Time;durP1;ratioP1;P1;durP2;ratioP2;P2;SDS_P1;SDS_P2;PMS_P1;PMS_P2;Temp;Humidity;BMP_temperature;BMP_pressure;BME280_temperature;BME280_humidity;BME280_pressure;Samples;Min_cycle;Max_cycle;Signal;HPM_P1;HPM_P2
2022/04/01 00:02:20;;;;;;;7.63;3.28;;;4.60;99.90;;;;;;4935510;29;20075;-79
2022/04/01 00:04:46;;;;;;;11.35;4.32;;;4.50;99.90;;;;;;4933422;29;20091;-79
2022/04/01 00:07:12;;;;;;;6.38;3.90;;;4.50;99.90;;;;;;4935291;29;20587;-78
2022/04/01 00:09:38;;;;;;;8.80;4.13;;;4.60;99.90;;;;;;4935100;29;20028;-78
2022/04/01 00:12:08;;;;;;;10.60;5.30;;;4.60;99.90;;;;;;4935178;29;20086;-79
2022/04/01 00:14:35;;;;;;;8.35;4.50;;;4.60;99.90;;;;;;4934385;29;20102;-79
2022/04/01 00:17:01;;;;;;;12.15;5.43;;;4.60;99.90;;;;;;4934094;29;20626;-78
2022/04/01 00:19:27;;;;;;;11.45;6.00;;;4.60;99.90;;;;;;4934060;29;20102;-79
2022/04/01 00:21:53;;;;;;;13.73;6.35;;;4.50;99.90;;;;;;4935785;29;20031;-80
2022/04/01 00:24:18;;;;;;;16.75;6.80;;;4.50;99.90;;;;;;4935495;29;20027;-78
2022/04/01 00:26:45;;;;;;;12.40;5.43;;;4.50;99.90;;;;;;4935774;29;20052;-78
2022/04/01 00:29:15;;;;;;;12.45;5.13;;;4.60;99.90;;;;;;4934317;29;20062;-79
2022/04/01 00:31:59;;;;;;;12.75;5.97;;;4.50;99.90;;;;;;4935626;29;20473;-79
2022/04/01 00:34:29;;;;;;;11.40;5.32;;;4.50;99.90;;;;;;4935850;29;20543;-79
2022/04/01 00:36:56;;;;;;;12.52;6.25;;;4.50;99.90;;;;;;4934019;29;20039;-78
2022/04/01 00:39:23;;;;;;;13.60;6.00;;;4.40;99.90;;;;;;4935329;29;20259;-79
2022/04/01 00:41:50;;;;;;;14.52;5.68;;;4.40;99.90;;;;;;4935021;29;20111;-78
2022/04/01 00:44:20;;;;;;;12.38;6.32;;;4.40;99.90;;;;;;4933810;29;20114;-79
2022/04/01 00:46:50;;;;;;;8.55;4.82;;;4.40;99.90;;;;;;4935437;29;20105;-79
2022/04/01 00:49:18;;;;;;;11.70;4.47;;;4.30;99.90;;;;;;4934966;29;20103;-78
2022/04/01 00:51:46;;;;;;;12.30;5.10;;;4.30;99.90;;;;;;4933784;29;20035;-78
2022/04/01 00:54:12;;;;;;;12.23;4.57;;;4.30;99.90;;;;;;4934708;29;20083;-78
2022/04/01 00:56:39;;;;;;;8.85;4.32;;;4.40;99.90;;;;;;4937028;29;20031;-78
2022/04/01 00:59:06;;;;;;;8.93;4.53;;;4.30;99.90;;;;;;4934695;29;20061;-78
2022/04/01 01:01:34;;;;;;;7.05;3.35;;;4.30;99.90;;;;;;4934936;29;20039;-79
2022/04/01 01:04:07;;;;;;;7.07;3.95;;;4.30;99.90;;;;;;4934931;29;20016;-78
2022/04/01 01:06:37;;;;;;;5.47;3.45;;;4.20;99.90;;;;;;4933489;29;20027;-78
2022/04/01 01:09:03;;;;;;;;;;;4.20;99.90;;;;;;4933745;29;20031;-77
2022/04/01 01:11:29;;;;;;;8.13;3.78;;;4.50;99.90;;;;;;4934948;29;20346;-79
2022/04/01 01:13:55;;;;;;;8.13;4.53;;;4.20;99.90;;;;;;4934938;29;20030;-78
2022/04/01 01:16:21;;;;;;;6.57;3.20;;;4.10;99.90;;;;;;4936288;29;20027;-78
2022/04/01 01:19:08;;;;;;;7.63;3.65;;;4.20;99.90;;;;;;4935512;29;20435;-78
2022/04/01 01:21:34;;;;;;;7.20;3.40;;;4.20;99.90;;;;;;4934360;29;20032;-78
2022/04/01 01:24:03;;;;;;;5.13;3.17;;;4.10;99.90;;;;;;4934028;29;20040;-78
2022/04/01 01:26:34;;;;;;;5.50;3.13;;;4.20;99.90;;;;;;4934022;29;20114;-79
2022/04/01 01:29:00;;;;;;;6.50;3.33;;;4.20;99.90;;;;;;4934457;29;20196;-78
2022/04/01 01:31:27;;;;;;;6.25;3.13;;;4.10;99.90;;;;;;4933378;29;20047;-78
2022/04/01 01:33:57;;;;;;;5.80;2.97;;;4.00;99.90;;;;;;4933137;29;20034;-78
2022/04/01 01:36:25;;;;;;;4.07;2.90;;;4.10;99.90;;;;;;4933406;29;20043;-78
2022/04/01 01:38:51;;;;;;;8.85;4.05;;;4.00;99.90;;;;;;4932761;29;20527;-78
2022/04/01 01:41:18;;;;;;;10.98;5.40;;;4.10;99.90;;;;;;4933105;29;20079;-79
2022/04/01 01:43:44;;;;;;;14.23;6.00;;;4.00;99.90;;;;;;4936558;29;20039;-79
2022/04/01 01:46:10;;;;;;;8.38;4.28;;;4.00;99.90;;;;;;4938231;29;20039;-79
2022/04/01 01:48:36;;;;;;;13.32;5.85;;;4.00;99.90;;;;;;4935277;29;20292;-79
2022/04/01 01:56:31;;;;;;;33.58;12.50;;;3.90;99.90;;;;;;4934133;29;20097;-78
2022/04/01 01:58:57;;;;;;;27.90;10.90;;;3.90;99.90;;;;;;4932181;29;20470;-79
2022/04/01 02:01:24;;;;;;;30.50;12.90;;;3.90;99.90;;;;;;4932387;29;20034;-78
2022/04/01 02:03:50;;;;;;;37.13;13.90;;;3.80;99.90;;;;;;4932409;29;20511;-78
2022/04/01 02:06:16;;;;;;;30.60;11.75;;;3.80;99.90;;;;;;4932417;29;20175;-79
2022/04/01 02:08:42;;;;;;;32.03;13.07;;;3.80;99.90;;;;;;4933437;29;20528;-78
2022/04/01 02:11:08;;;;;;;32.47;13.52;;;3.70;99.90;;;;;;4932314;29;20027;-78
2022/04/01 02:13:34;;;;;;;35.50;14.13;;;3.70;99.90;;;;;;4933380;29;20030;-79
2022/04/01 02:16:00;;;;;;;34.75;12.18;;;3.60;99.90;;;;;;4931885;29;20111;-77
2022/04/01 02:18:26;;;;;;;35.30;12.90;;;3.60;99.90;;;;;;4933309;29;20020;-79
2022/04/01 02:20:52;;;;;;;42.63;15.27;;;3.60;99.90;;;;;;4933487;29;20027;-78
2022/04/01 02:23:18;;;;;;;37.20;14.73;;;3.60;99.90;;;;;;4931760;29;20043;-79
2022/04/01 02:25:44;;;;;;;33.15;13.65;;;3.60;99.90;;;;;;4931884;29;20115;-79
2022/04/01 02:28:10;;;;;;;33.83;13.07;;;3.50;99.90;;;;;;4933313;29;20378;-78
2022/04/01 02:30:36;;;;;;;31.75;13.45;;;3.50;99.90;;;;;;4933409;29;20624;-78
2022/04/01 02:33:02;;;;;;;31.42;12.27;;;3.50;99.90;;;;;;4932231;29;20119;-79
2022/04/01 02:35:29;;;;;;;35.20;13.00;;;3.50;99.90;;;;;;4932096;29;20119;-79
2022/04/01 02:37:55;;;;;;;28.60;11.65;;;3.50;99.90;;;;;;4932817;29;20428;-78
2022/04/01 02:40:22;;;;;;;29.65;13.38;;;3.40;99.90;;;;;;4931537;29;20370;-78
2022/04/01 02:42:49;;;;;;;33.53;13.88;;;3.30;99.90;;;;;;4931305;29;20134;-78
2022/04/01 02:45:15;;;;;;;37.67;14.70;;;3.30;99.90;;;;;;4931543;29;20540;-79
2022/04/01 02:47:40;;;;;;;33.90;12.55;;;3.30;99.90;;;;;;4931756;29;20135;-79
2022/04/01 02:50:07;;;;;;;35.78;13.57;;;3.30;99.90;;;;;;4933235;29;20031;-79
2022/04/01 02:52:33;;;;;;;31.38;14.48;;;3.30;99.90;;;;;;4931261;29;20420;-78
2022/04/01 02:54:58;;;;;;;30.52;14.00;;;3.30;99.90;;;;;;4931440;29;20028;-78
2022/04/01 02:57:24;;;;;;;29.55;12.85;;;3.20;99.90;;;;;;4932798;29;20035;-79
2022/04/01 02:59:50;;;;;;;32.42;14.25;;;3.20;99.90;;;;;;4932643;29;20080;-78
2022/04/01 03:02:16;;;;;;;28.48;12.30;;;3.20;99.90;;;;;;4932531;29;20032;-78
2022/04/01 03:04:42;;;;;;;32.50;13.77;;;3.10;99.90;;;;;;4933089;29;20030;-78
2022/04/01 03:07:08;;;;;;;35.67;14.10;;;3.20;99.90;;;;;;4932750;29;20027;-78
2022/04/01 03:09:34;;;;;;;29.90;11.57;;;3.10;99.90;;;;;;4932584;29;20035;-78
2022/04/01 03:12:00;;;;;;;31.75;12.40;;;3.10;99.90;;;;;;4932562;29;20055;-78
2022/04/01 03:14:26;;;;;;;31.27;13.77;;;3.10;99.90;;;;;;4932967;29;20027;-78
2022/04/01 03:16:52;;;;;;;35.13;14.25;;;3.10;99.90;;;;;;4932272;29;20019;-78
2022/04/01 03:19:18;;;;;;;33.42;14.20;;;3.10;99.90;;;;;;4932658;29;20031;-78
2022/04/01 03:21:45;;;;;;;24.27;11.48;;;3.00;99.90;;;;;;4931064;29;20043;-78
2022/04/01 03:24:11;;;;;;;33.30;14.05;;;3.00;99.90;;;;;;4932168;29;20038;-78
2022/04/01 03:26:38;;;;;;;37.67;14.27;;;3.00;99.90;;;;;;4932323;29;20116;-78
2022/04/01 03:29:06;;;;;;;27.25;12.02;;;3.00;99.90;;;;;;4932503;29;20028;-78
2022/04/01 03:31:32;;;;;;;33.67;13.90;;;3.00;99.90;;;;;;4932512;29;20024;-78
2022/04/01 03:33:58;;;;;;;36.42;14.82;;;3.00;99.90;;;;;;4930852;29;20028;-78
2022/04/01 03:36:24;;;;;;;30.77;14.65;;;3.00;99.90;;;;;;4932419;29;20032;-78
2022/04/01 03:38:50;;;;;;;37.00;14.30;;;2.90;99.90;;;;;;4932118;29;20023;-78
2022/04/01 03:41:17;;;;;;;30.50;13.25;;;3.00;99.90;;;;;;4932134;29;20508;-78
2022/04/01 03:43:43;;;;;;;36.47;14.27;;;2.90;99.90;;;;;;4931921;29;20359;-77
2022/04/01 03:46:13;;;;;;;35.22;14.25;;;2.90;99.90;;;;;;4932374;29;20066;-77
2022/04/01 03:48:52;;;;;;;39.13;14.50;;;2.90;99.90;;;;;;4932021;29;20128;-78
2022/04/01 03:51:24;;;;;;;29.95;13.32;;;2.90;99.90;;;;;;4932335;29;20032;-78
2022/04/01 03:54:02;;;;;;;35.05;13.80;;;2.90;99.90;;;;;;4930420;29;20111;-77
2022/04/01 03:56:34;;;;;;;29.48;12.95;;;2.90;99.90;;;;;;4936035;29;20124;-77
2022/04/01 03:59:04;;;;;;;32.90;15.95;;;2.90;99.90;;;;;;4936193;29;20016;-78
2022/04/01 04:01:30;;;;;;;33.15;13.60;;;2.90;99.90;;;;;;4934511;29;20091;-77
2022/04/01 04:03:57;;;;;;;36.35;14.02;;;2.90;99.90;;;;;;4935933;29;20028;-77
2022/04/01 04:06:24;;;;;;;33.90;14.15;;;2.90;99.90;;;;;;4935883;29;20103;-78
2022/04/01 04:08:57;;;;;;;34.90;14.20;;;2.90;99.90;;;;;;4935305;29;20027;-77
2022/04/01 04:11:31;;;;;;;30.60;13.65;;;2.90;99.90;;;;;;4935703;29;20027;-77
2022/04/01 04:13:58;;;;;;;30.77;14.32;;;2.90;99.90;;;;;;4935877;29;20020;-78
2022/04/01 04:16:57;;;;;;;33.03;14.07;;;2.90;99.90;;;;;;4934783;29;20024;-79
2022/04/01 04:19:36;;;;;;;30.40;12.13;;;2.90;99.90;;;;;;4903594;29;20091;-79
2022/04/01 04:22:17;;;;;;;29.98;13.85;;;2.80;99.90;;;;;;4935083;29;20039;-80
2022/04/01 04:24:53;;;;;;;26.90;11.55;;;2.80;99.90;;;;;;4939319;29;20039;-80
2022/04/01 04:27:25;;;;;;;33.25;13.13;;;2.80;99.90;;;;;;4937153;29;20091;-80
2022/04/01 04:29:52;;;;;;;35.90;13.23;;;2.70;99.90;;;;;;4945249;29;20031;-79
2022/04/01 04:32:34;;;;;;;32.00;11.88;;;2.70;99.90;;;;;;4947699;29;20020;-81
2022/04/01 04:35:06;;;;;;;34.65;14.27;;;2.70;99.90;;;;;;4940005;29;20086;-80
2022/04/01 04:37:35;;;;;;;31.77;13.38;;;2.60;99.90;;;;;;4936430;29;20023;-80
2022/04/01 04:40:01;;;;;;;28.75;13.10;;;2.60;99.90;;;;;;4938420;29;20043;-80
2022/04/01 04:42:28;;;;;;;31.23;12.77;;;2.50;99.90;;;;;;4938786;29;20032;-80
2022/04/01 04:44:54;;;;;;;34.08;13.38;;;2.60;99.90;;;;;;4942014;29;20058;-81
2022/04/01 04:47:28;;;;;;;30.75;13.20;;;2.50;99.90;;;;;;4937608;29;20035;-78
2022/04/01 04:49:57;;;;;;;31.05;12.85;;;2.50;99.90;;;;;;4933619;29;20028;-79
2022/04/01 04:52:29;;;;;;;30.33;13.65;;;2.50;99.90;;;;;;4936295;29;20032;-79
2022/04/01 04:54:56;;;;;;;29.98;13.20;;;2.40;99.90;;;;;;4930150;29;20032;-79
2022/04/01 04:57:22;;;;;;;32.17;14.77;;;2.40;99.90;;;;;;4933802;29;20350;-78
2022/04/01 04:59:49;;;;;;;34.55;13.68;;;2.40;99.90;;;;;;4941400;29;20276;-78
2022/04/01 05:02:22;;;;;;;35.58;14.13;;;2.40;99.90;;;;;;4939161;29;20056;-78
2022/04/01 05:05:01;;;;;;;36.50;14.02;;;2.30;99.90;;;;;;4935179;29;20019;-78
2022/04/01 05:07:35;;;;;;;;;;;2.30;99.90;;;;;;4936228;29;20023;-79
2022/04/01 05:10:08;;;;;;;38.10;12.75;;;2.30;99.90;;;;;;4935801;29;19917;-80
2022/04/01 05:12:49;;;;;;;33.35;14.00;;;2.20;99.90;;;;;;4933912;29;20039;-79
2022/04/01 05:15:19;;;;;;;34.55;13.68;;;2.20;99.90;;;;;;4933637;29;20389;-79
2022/04/01 05:17:54;;;;;;;35.17;14.85;;;2.20;99.90;;;;;;4933832;29;20027;-77
2022/04/01 05:20:26;;;;;;;34.92;14.90;;;2.10;99.90;;;;;;4943975;29;20019;-78
2022/04/01 05:23:10;;;;;;;30.67;12.90;;;2.00;99.90;;;;;;4942920;29;20212;-77
2022/04/01 05:25:54;;;;;;;35.20;14.15;;;2.00;99.90;;;;;;4943370;29;20024;-76
2022/04/01 05:28:23;;;;;;;29.88;13.55;;;2.00;99.90;;;;;;4935579;29;20197;-77
2022/04/01 05:30:59;;;;;;;34.85;14.27;;;1.90;99.90;;;;;;4934600;29;20020;-78
2022/04/01 05:33:36;;;;;;;27.52;12.07;;;1.90;99.90;;;;;;4942973;29;20038;-77
2022/04/01 05:36:04;;;;;;;31.58;12.23;;;1.90;99.90;;;;;;4941758;29;20050;-77
2022/04/01 05:38:32;;;;;;;28.67;13.75;;;1.90;99.90;;;;;;4943187;29;20016;-78
2022/04/01 05:40:58;;;;;;;33.35;13.73;;;2.00;99.90;;;;;;4944171;29;20032;-78
2022/04/01 05:43:25;;;;;;;31.33;14.07;;;1.90;99.90;;;;;;4944254;29;20151;-78
2022/04/01 05:45:53;;;;;;;30.95;12.98;;;1.90;99.90;;;;;;4943977;29;20014;-77
2022/04/01 05:48:20;;;;;;;31.67;13.48;;;1.70;99.90;;;;;;4936883;29;20115;-78
2022/04/01 05:50:48;;;;;;;29.45;13.75;;;1.60;99.90;;;;;;4933378;29;20115;-77
2022/04/01 05:53:14;;;;;;;25.25;12.38;;;1.60;99.90;;;;;;4933351;29;20445;-77
2022/04/01 05:55:41;;;;;;;32.72;12.50;;;1.60;99.90;;;;;;4932669;29;20016;-77
2022/04/01 05:58:06;;;;;;;31.30;13.50;;;1.70;99.90;;;;;;4932382;29;20569;-77
2022/04/01 06:00:40;;;;;;;33.25;12.80;;;1.70;99.90;;;;;;4932781;29;20111;-78
2022/04/01 06:03:35;;;;;;;29.70;13.73;;;1.70;99.90;;;;;;4932595;29;20032;-78
2022/04/01 06:06:11;;;;;;;22.73;11.90;;;1.70;99.90;;;;;;4893109;29;20054;-78
2022/04/01 06:09:07;;;;;;;28.38;13.27;;;1.70;99.90;;;;;;4933041;29;20106;-77
2022/04/01 06:11:49;;;;;;;26.58;11.60;;;1.70;99.90;;;;;;4933115;29;20493;-77
2022/04/01 06:14:34;;;;;;;24.67;12.38;;;1.60;99.90;;;;;;4932686;29;20038;-78
2022/04/01 06:17:18;;;;;;;28.20;11.77;;;1.40;99.90;;;;;;4932161;29;20035;-78
2022/04/01 06:19:45;;;;;;;27.35;12.23;;;1.40;99.90;;;;;;4933703;29;20032;-78
2022/04/01 06:22:20;;;;;;;26.77;13.07;;;1.30;99.90;;;;;;4931691;29;20043;-77
2022/04/01 06:25:10;;;;;;;26.98;13.38;;;1.40;99.90;;;;;;4931710;29;20078;-77
2022/04/01 06:27:48;;;;;;;27.08;12.55;;;1.50;99.90;;;;;;4932224;29;20043;-78
2022/04/01 06:30:20;;;;;;;30.38;13.73;;;1.50;99.90;;;;;;4934242;29;20066;-77
2022/04/01 06:32:55;;;;;;;28.13;12.18;;;1.50;99.90;;;;;;4934386;29;20024;-77
2022/04/01 06:35:28;;;;;;;28.73;13.00;;;1.60;99.90;;;;;;4934012;29;20042;-78
2022/04/01 06:38:00;;;;;;;29.27;12.80;;;1.60;99.90;;;;;;4933044;29;20473;-77
2022/04/01 06:40:47;;;;;;;29.50;11.82;;;1.70;99.90;;;;;;4933236;29;20102;-78
2022/04/01 06:43:13;;;;;;;25.02;10.90;;;1.60;99.90;;;;;;4933343;29;20040;-77
2022/04/01 06:45:42;;;;;;;27.13;12.95;;;1.60;99.90;;;;;;4933538;29;20028;-78
2022/04/01 06:48:08;;;;;;;28.35;13.18;;;1.60;99.90;;;;;;4932103;29;20139;-78
2022/04/01 06:50:34;;;;;;;29.52;13.00;;;1.50;99.90;;;;;;4933255;29;20039;-78
2022/04/01 06:53:00;;;;;;;25.60;12.15;;;1.60;99.90;;;;;;4932477;29;20055;-77
2022/04/01 06:55:26;;;;;;;26.02;12.27;;;1.90;99.90;;;;;;4933316;29;20121;-77
2022/04/01 06:57:52;;;;;;;27.17;11.45;;;1.50;99.90;;;;;;4932912;29;20026;-77
2022/04/01 07:00:18;;;;;;;27.85;11.82;;;1.50;99.90;;;;;;4932929;29;20377;-77
2022/04/01 07:02:46;;;;;;;19.17;10.07;;;1.50;99.90;;;;;;4933593;29;20035;-77
2022/04/01 07:05:12;;;;;;;23.23;10.10;;;1.50;99.90;;;;;;4933060;29;20023;-78
2022/04/01 07:07:43;;;;;;;23.85;11.20;;;1.40;99.90;;;;;;4932939;29;20559;-76
2022/04/01 07:10:11;;;;;;;21.48;9.43;;;1.40;99.90;;;;;;4933078;29;20099;-78
2022/04/01 07:12:37;;;;;;;21.20;9.80;;;1.40;99.90;;;;;;4932851;29;20031;-77
2022/04/01 07:15:07;;;;;;;24.92;11.02;;;1.40;99.90;;;;;;4932589;29;20027;-77
2022/04/01 07:17:33;;;;;;;25.42;11.30;;;1.40;99.90;;;;;;4932968;29;20047;-77
2022/04/01 07:19:59;;;;;;;25.25;12.15;;;1.40;99.90;;;;;;4933742;29;20035;-77
2022/04/01 07:22:25;;;;;;;23.48;10.98;;;1.30;99.90;;;;;;4933552;29;20046;-78
2022/04/01 07:24:51;;;;;;;25.27;11.73;;;1.20;99.90;;;;;;4932126;29;20019;-77
2022/04/01 07:27:17;;;;;;;25.38;11.13;;;1.30;99.90;;;;;;4934180;29;20066;-77
2022/04/01 07:29:43;;;;;;;23.00;11.15;;;1.30;99.90;;;;;;4932737;29;20059;-77
2022/04/01 07:34:53;;;;;;;27.30;13.55;;;1.30;99.90;;;;;;4933407;29;20528;-78
2022/04/01 07:37:22;;;;;;;27.10;14.27;;;1.30;99.90;;;;;;4933035;29;20027;-77
2022/04/01 07:39:48;;;;;;;22.48;11.20;;;1.30;99.90;;;;;;4932821;29;20030;-77
2022/04/01 07:42:14;;;;;;;24.33;13.02;;;1.30;99.90;;;;;;4933404;29;20540;-78
2022/04/01 07:44:39;;;;;;;23.00;12.07;;;1.20;99.90;;;;;;4939972;29;20031;-79
2022/04/01 07:47:09;;;;;;;22.02;10.75;;;1.20;99.90;;;;;;4940623;29;20056;-77
2022/04/01 07:49:40;;;;;;;20.52;11.20;;;1.10;99.90;;;;;;4932717;29;20020;-77
2022/04/01 07:52:10;;;;;;;17.85;8.98;;;1.10;99.90;;;;;;4931182;29;20031;-77
2022/04/01 07:54:37;;;;;;;23.10;11.55;;;1.10;99.90;;;;;;4932358;29;20032;-76
2022/04/01 07:57:04;;;;;;;17.70;9.23;;;1.10;99.90;;;;;;4934884;29;20047;-76
2022/04/01 07:59:30;;;;;;;17.98;8.85;;;1.10;99.90;;;;;;4937367;29;20441;-75
2022/04/01 08:01:57;;;;;;;16.30;8.02;;;1.10;99.90;;;;;;4932978;29;20038;-75
2022/04/01 08:04:25;;;;;;;13.75;7.78;;;1.00;99.90;;;;;;4935222;29;20485;-75
2022/04/01 08:06:51;;;;;;;15.60;8.02;;;1.00;99.90;;;;;;4936617;29;20081;-75
2022/04/01 08:09:17;;;;;;;13.80;8.30;;;1.10;99.90;;;;;;4936162;29;20024;-75
2022/04/01 08:11:43;;;;;;;13.68;8.05;;;1.10;99.90;;;;;;4936146;29;20027;-75
2022/04/01 08:14:09;;;;;;;16.15;7.70;;;1.10;99.90;;;;;;4935630;29;20056;-75
2022/04/01 08:16:35;;;;;;;14.82;7.28;;;1.10;99.90;;;;;;4933740;29;20043;-75
2022/04/01 08:19:02;;;;;;;14.52;7.80;;;1.10;99.90;;;;;;4934927;29;20094;-75
2022/04/01 08:21:29;;;;;;;16.08;8.18;;;1.10;99.90;;;;;;4933680;29;20462;-74
2022/04/01 08:23:54;;;;;;;14.02;7.38;;;1.10;99.90;;;;;;4934744;29;20040;-76
2022/04/01 08:26:20;;;;;;;14.05;6.95;;;1.10;99.90;;;;;;4935151;29;20524;-74
2022/04/01 08:28:46;;;;;;;11.10;7.05;;;1.20;99.90;;;;;;4934016;29;20049;-75
2022/04/01 08:31:12;;;;;;;17.02;8.70;;;1.20;99.90;;;;;;4936637;29;20027;-74
2022/04/01 08:33:37;;;;;;;16.33;8.18;;;1.20;99.90;;;;;;4936401;29;20087;-74
2022/04/01 08:36:04;;;;;;;15.73;8.48;;;1.20;99.90;;;;;;4937000;29;20487;-74
2022/04/01 08:38:30;;;;;;;16.05;9.02;;;1.10;99.90;;;;;;4934916;29;20173;-74
2022/04/01 08:40:55;;;;;;;14.25;7.30;;;1.10;99.90;;;;;;4936655;29;20031;-74
2022/04/01 08:43:31;;;;;;;15.80;7.95;;;1.00;99.90;;;;;;4937787;29;20035;-75
2022/04/01 08:46:00;;;;;;;14.40;8.15;;;1.00;99.90;;;;;;4912164;29;20210;-75
2022/04/01 08:48:28;;;;;;;12.93;7.22;;;1.00;99.90;;;;;;4934946;29;20477;-75
2022/04/01 08:50:54;;;;;;;15.80;7.72;;;0.90;99.90;;;;;;4938016;29;20032;-77
2022/04/01 08:53:20;;;;;;;13.55;6.85;;;0.90;99.90;;;;;;4935564;29;20078;-75
2022/04/01 08:55:48;;;;;;;14.68;8.35;;;1.00;99.90;;;;;;4919656;29;20039;-76
2022/04/01 08:58:17;;;;;;;11.95;7.18;;;0.90;99.90;;;;;;4933984;29;20054;-75
2022/04/01 09:00:44;;;;;;;13.57;7.25;;;0.90;99.90;;;;;;4934746;29;20038;-74
2022/04/01 09:03:12;;;;;;;13.25;7.05;;;0.90;99.90;;;;;;4933422;29;20036;-76
2022/04/01 09:05:46;;;;;;;17.05;8.30;;;0.90;99.90;;;;;;4926381;29;20119;-75
2022/04/01 09:08:14;;;;;;;15.27;7.68;;;1.00;99.90;;;;;;4933217;29;20024;-75
2022/04/01 09:11:06;;;;;;;13.18;6.85;;;1.00;99.90;;;;;;4933002;29;20078;-75
2022/04/01 09:13:34;;;;;;;13.68;7.43;;;1.00;99.90;;;;;;4934552;29;20036;-75
2022/04/01 09:16:02;;;;;;;11.52;6.75;;;1.10;99.90;;;;;;4932349;29;20027;-76
2022/04/01 09:18:42;;;;;;;16.23;6.65;;;1.20;99.90;;;;;;4936079;29;20133;-75
2022/04/01 09:21:12;;;;;;;17.33;8.13;;;1.20;99.90;;;;;;4936561;29;20016;-75
2022/04/01 09:23:40;;;;;;;12.10;7.15;;;1.10;99.90;;;;;;4935496;29;20028;-75
2022/04/01 09:26:06;;;;;;;9.55;5.57;;;1.20;99.90;;;;;;4934724;29;20040;-75
2022/04/01 09:28:39;;;;;;;10.07;6.50;;;1.20;99.90;;;;;;4930479;29;20488;-75
2022/04/01 09:31:13;;;;;;;12.10;6.20;;;1.10;99.90;;;;;;4930371;29;20036;-75
2022/04/01 09:33:50;;;;;;;11.38;6.47;;;1.10;99.90;;;;;;4930215;29;20031;-76
2022/04/01 09:36:24;;;;;;;12.80;6.15;;;1.10;99.90;;;;;;4929673;29;20056;-76
2022/04/01 09:39:03;;;;;;;11.30;5.32;;;1.10;99.90;;;;;;4932477;29;20631;-75
2022/04/01 09:41:33;;;;;;;8.40;5.10;;;1.20;99.90;;;;;;4933219;29;20035;-75
2022/04/01 09:44:18;;;;;;;8.95;5.75;;;1.30;99.90;;;;;;4931786;29;20043;-77
2022/04/01 09:46:49;;;;;;;9.82;5.15;;;1.30;99.90;;;;;;4931615;29;20211;-75
2022/04/01 09:49:28;;;;;;;9.82;5.28;;;1.30;99.90;;;;;;4931444;29;20082;-76
2022/04/01 09:51:54;;;;;;;6.78;4.25;;;1.20;99.90;;;;;;4930530;29;20043;-78
2022/04/01 09:54:22;;;;;;;7.80;4.45;;;1.20;99.90;;;;;;4934102;29;20035;-75
2022/04/01 09:56:54;;;;;;;8.32;4.85;;;1.20;99.90;;;;;;4931320;29;20454;-75
2022/04/01 09:59:21;;;;;;;8.18;5.22;;;1.30;99.90;;;;;;4932401;29;20026;-75
2022/04/01 10:01:47;;;;;;;10.30;5.50;;;1.30;99.90;;;;;;4937244;29;20043;-76
2022/04/01 10:04:14;;;;;;;10.75;5.50;;;1.30;99.90;;;;;;4933508;29;20114;-76
2022/04/01 10:06:41;;;;;;;9.50;5.60;;;1.40;99.90;;;;;;4931367;29;20064;-79
2022/04/01 10:09:09;;;;;;;8.77;4.97;;;1.30;99.90;;;;;;4932083;29;20028;-75
2022/04/01 10:11:38;;;;;;;9.07;5.53;;;1.30;99.90;;;;;;4936137;29;20107;-75
2022/04/01 10:14:14;;;;;;;6.63;4.15;;;1.40;99.90;;;;;;4936243;29;20209;-76
2022/04/01 10:16:44;;;;;;;10.75;6.15;;;1.50;99.90;;;;;;4922348;29;20020;-79
2022/04/01 10:19:12;;;;;;;11.15;6.72;;;1.30;99.90;;;;;;4935134;29;20034;-79
2022/04/01 10:21:44;;;;;;;11.32;6.85;;;1.50;99.90;;;;;;4920452;29;20051;-79
2022/04/01 10:24:25;;;;;;;7.75;5.57;;;1.40;99.90;;;;;;4935017;29;20031;-76
2022/04/01 10:27:13;;;;;;;5.88;4.25;;;1.50;99.90;;;;;;4937947;29;20063;-78
2022/04/01 10:29:39;;;;;;;7.55;4.85;;;1.50;99.90;;;;;;4918010;29;20086;-75
2022/04/01 10:32:25;;;;;;;6.45;4.40;;;1.40;99.90;;;;;;4933660;29;20050;-89
2022/04/01 10:34:53;;;;;;;9.98;5.80;;;1.30;99.90;;;;;;4915898;29;20039;-80
2022/04/01 10:37:22;;;;;;;7.90;5.45;;;1.40;99.90;;;;;;4932421;29;20087;-75
2022/04/01 10:40:04;;;;;;;9.82;5.43;;;1.60;99.90;;;;;;4932241;29;20019;-79
2022/04/01 10:42:39;;;;;;;9.02;5.95;;;1.70;99.90;;;;;;4927657;29;20040;-79
2022/04/01 10:45:21;;;;;;;6.53;4.18;;;1.60;99.90;;;;;;4931680;29;20028;-80
2022/04/01 10:53:48;;;;;;;5.55;3.65;;;1.80;99.90;;;;;;4895345;29;20600;-76
2022/04/01 10:56:23;;;;;;;9.30;6.03;;;1.80;99.90;;;;;;4922797;29;20492;-75
2022/04/01 10:59:06;;;;;;;10.45;5.82;;;1.80;99.90;;;;;;4928981;29;20118;-75
2022/04/01 11:01:34;;;;;;;7.88;4.50;;;1.60;99.90;;;;;;4929135;29;20043;-75
2022/04/01 11:04:19;;;;;;;5.65;4.07;;;1.50;99.90;;;;;;4932026;29;20059;-75
2022/04/01 11:06:52;;;;;;;10.25;5.18;;;1.50;99.90;;;;;;4932981;29;20066;-76
2022/04/01 11:09:41;;;;;;;7.57;5.25;;;1.60;99.90;;;;;;4931293;29;20023;-74
2022/04/01 11:12:19;;;;;;;9.30;4.97;;;1.50;99.90;;;;;;4925074;29;20040;-75
2022/04/01 11:17:27;;;;;;;7.90;5.25;;;1.40;99.90;;;;;;4930133;29;20479;-75
2022/04/01 11:20:00;;;;;;;9.63;5.18;;;1.30;99.90;;;;;;4931464;29;20028;-76
2022/04/01 11:22:50;;;;;;;7.50;4.22;;;1.30;99.90;;;;;;4932280;29;20051;-75
2022/04/01 11:25:22;;;;;;;8.10;5.05;;;1.50;99.90;;;;;;4933011;29;20621;-75
2022/04/01 11:27:56;;;;;;;9.25;5.15;;;1.40;99.90;;;;;;4930636;29;20378;-76
2022/04/01 11:30:25;;;;;;;11.68;6.35;;;1.40;99.90;;;;;;4932973;29;20036;-75
2022/04/01 11:33:02;;;;;;;9.52;5.47;;;1.30;99.90;;;;;;4932176;29;20082;-75
2022/04/01 11:35:32;;;;;;;5.95;3.95;;;1.40;99.90;;;;;;4933284;29;20028;-75
2022/04/01 11:37:59;;;;;;;11.45;5.22;;;1.40;99.90;;;;;;4936920;29;20091;-76
2022/04/01 11:40:31;;;;;;;8.25;5.10;;;1.40;99.90;;;;;;4933134;29;20564;-75
2022/04/01 11:43:02;;;;;;;6.88;4.80;;;1.50;99.90;;;;;;4937912;29;20058;-75
2022/04/01 11:45:38;;;;;;;10.68;5.35;;;1.60;99.90;;;;;;4934285;29;20039;-76
2022/04/01 11:48:22;;;;;;;9.10;5.75;;;1.50;99.90;;;;;;4934827;29;20456;-78
2022/04/01 11:50:54;;;;;;;5.15;3.70;;;1.50;99.90;;;;;;4936926;29;20107;-84
2022/04/01 11:53:31;;;;;;;9.90;4.63;;;1.50;99.90;;;;;;4934377;29;20040;-75
2022/04/01 11:55:59;;;;;;;8.27;5.28;;;1.40;99.90;;;;;;4914720;29;20051;-82
2022/04/01 11:58:26;;;;;;;9.40;5.57;;;1.30;99.90;;;;;;4913651;29;20094;-83
2022/04/01 12:00:52;;;;;;;10.20;6.60;;;1.30;99.90;;;;;;4929862;29;20020;-79
2022/04/01 12:03:19;;;;;;;7.10;4.30;;;1.20;99.90;;;;;;4922793;29;20034;-80
2022/04/01 12:05:45;;;;;;;5.03;3.67;;;1.30;99.90;;;;;;4911900;29;20028;-79
2022/04/01 12:11:00;;;;;;;8.15;4.93;;;1.10;99.90;;;;;;4929818;29;20054;-79
2022/04/01 12:13:30;;;;;;;9.88;5.63;;;1.00;99.90;;;;;;4929758;29;20492;-80
2022/04/01 12:15:59;;;;;;;8.82;4.50;;;1.00;99.90;;;;;;4934865;29;20083;-78
2022/04/01 12:18:30;;;;;;;12.00;5.22;;;1.00;99.90;;;;;;4936818;29;20108;-81
2022/04/01 12:20:58;;;;;;;10.65;5.88;;;1.00;99.90;;;;;;4908234;29;20055;-76
2022/04/01 12:23:33;;;;;;;9.70;4.95;;;1.10;99.90;;;;;;4940554;29;20039;-77
2022/04/01 12:26:00;;;;;;;10.82;5.93;;;1.00;99.90;;;;;;4934505;29;20030;-75
2022/04/01 12:28:38;;;;;;;12.32;5.20;;;1.00;99.90;;;;;;4933455;29;20032;-78
2022/04/01 12:31:05;;;;;;;8.73;4.72;;;1.00;99.90;;;;;;4932340;29;20031;-79
2022/04/01 12:33:33;;;;;;;9.55;6.35;;;1.00;99.90;;;;;;4916184;29;20464;-80
2022/04/01 12:36:07;;;;;;;13.43;6.78;;;1.00;99.90;;;;;;4916875;29;20154;-78
2022/04/01 12:38:42;;;;;;;10.45;6.15;;;1.10;99.90;;;;;;4937435;29;20036;-75
2022/04/01 12:41:16;;;;;;;6.85;4.00;;;1.10;99.90;;;;;;4934919;29;20022;-78
2022/04/01 12:43:47;;;;;;;9.70;5.65;;;1.10;99.90;;;;;;4935745;29;20028;-78
2022/04/01 12:46:17;;;;;;;10.15;5.68;;;1.10;99.90;;;;;;4934438;29;20034;-80
2022/04/01 12:48:43;;;;;;;9.82;6.10;;;-2.20;99.90;;;;;;4934697;29;20041;-82
2022/04/01 12:51:08;;;;;;;10.18;5.50;;;1.10;99.90;;;;;;4938314;29;20396;-74
2022/04/01 12:53:38;;;;;;;11.13;6.00;;;1.00;99.90;;;;;;4933655;29;20044;-77
2022/04/01 12:56:23;;;;;;;13.07;5.28;;;1.10;99.90;;;;;;4935213;29;20164;-88
2022/04/01 12:58:49;;;;;;;7.57;4.53;;;1.20;99.90;;;;;;4932879;29;20102;-81
2022/04/01 13:01:25;;;;;;;8.63;4.82;;;1.20;99.90;;;;;;4935162;29;20020;-77
2022/04/01 13:03:52;;;;;;;6.68;4.90;;;1.30;99.90;;;;;;4935257;29;20031;-78
2022/04/01 13:06:18;;;;;;;6.38;4.20;;;1.30;99.90;;;;;;4933191;29;20032;-75
2022/04/01 13:08:44;;;;;;;7.30;3.85;;;1.20;99.90;;;;;;4931520;29;20031;-76
2022/04/01 13:11:14;;;;;;;8.65;5.35;;;1.30;99.90;;;;;;4934719;29;20422;-75
2022/04/01 13:13:41;;;;;;;5.22;3.50;;;1.20;99.90;;;;;;4933684;29;20046;-75
2022/04/01 13:16:08;;;;;;;10.70;4.75;;;1.30;99.90;;;;;;4933144;29;20031;-75
2022/04/01 13:18:34;;;;;;;7.75;4.57;;;1.20;99.90;;;;;;4933585;29;20087;-75
2022/04/01 13:21:01;;;;;;;2.65;2.40;;;1.20;99.90;;;;;;4932699;29;20024;-76